sensor_id;sensor_type;location;lat;lon;timestamp;temperature;humidity
21193;DHT22;10754;51.106;7.164;2023-02-18T00:14:36;14.10;1.00
21193;DHT22;10754;51.106;7.164;2023-02-18T00:42:31;14.40;1.00
21193;DHT22;10754;51.106;7.164;2023-02-18T01:12:59;14.30;1.00
21193;DHT22;10754;51.106;7.164;2023-02-18T01:32:55;14.20;1.00
21193;DHT22;10754;51.106;7.164;2023-02-18T01:36:02;14.20;1.00
21193;DHT22;10754;51.106;7.164;2023-02-18T01:39:44;14.00;1.00
21193;DHT22;10754;51.106;7.164;2023-02-18T01:50:06;14.10;1.00
21193;DHT22;10754;51.106;7.164;2023-02-18T02:07:13;14.00;1.00
21193;DHT22;10754;51.106;7.164;2023-02-18T02:20:24;14.30;1.00
21193;DHT22;10754;51.106;7.164;2023-02-18T02:27:07;14.10;1.00
21193;DHT22;10754;51.106;7.164;2023-02-18T02:36:53;14.20;1.00
21193;DHT22;10754;51.106;7.164;2023-02-18T02:46:56;14.20;1.00
21193;DHT22;10754;51.106;7.164;2023-02-18T03:02:57;13.90;1.00
21193;DHT22;10754;51.106;7.164;2023-02-18T03:13:09;13.90;1.00
21193;DHT22;10754;51.106;7.164;2023-02-18T03:33:02;13.80;1.00
21193;DHT22;10754;51.106;7.164;2023-02-18T03:39:30;13.90;1.00
21193;DHT22;10754;51.106;7.164;2023-02-18T03:46:20;14.20;1.00
21193;DHT22;10754;51.106;7.164;2023-02-18T03:49:24;14.10;1.00
21193;DHT22;10754;51.106;7.164;2023-02-18T06:21:06;13.80;1.00
21193;DHT22;10754;51.106;7.164;2023-02-18T06:30:45;13.50;1.00
21193;DHT22;10754;51.106;7.164;2023-02-18T07:01:08;13.80;1.00
21193;DHT22;10754;51.106;7.164;2023-02-18T07:28:36;13.60;1.00
21193;DHT22;10754;51.106;7.164;2023-02-18T07:48:35;13.70;1.00
21193;DHT22;10754;51.106;7.164;2023-02-18T07:51:05;13.60;1.00
21193;DHT22;10754;51.106;7.164;2023-02-18T07:53:30;13.70;1.00
21193;DHT22;10754;51.106;7.164;2023-02-18T07:55:59;13.80;1.00
21193;DHT22;10754;51.106;7.164;2023-02-18T07:58:28;14.00;1.00
21193;DHT22;10754;51.106;7.164;2023-02-18T08:00:54;13.80;1.00
21193;DHT22;10754;51.106;7.164;2023-02-18T08:03:22;13.70;1.00
21193;DHT22;10754;51.106;7.164;2023-02-18T08:05:48;13.60;1.00
21193;DHT22;10754;51.106;7.164;2023-02-18T08:08:17;13.60;1.00
21193;DHT22;10754;51.106;7.164;2023-02-18T08:10:45;14.10;1.00
21193;DHT22;10754;51.106;7.164;2023-02-18T08:13:10;13.60;1.00
21193;DHT22;10754;51.106;7.164;2023-02-18T08:15:36;13.60;1.00
21193;DHT22;10754;51.106;7.164;2023-02-18T08:18:02;13.60;1.00
21193;DHT22;10754;51.106;7.164;2023-02-18T08:20:28;13.60;1.00
21193;DHT22;10754;51.106;7.164;2023-02-18T08:22:53;13.80;1.00
21193;DHT22;10754;51.106;7.164;2023-02-18T08:25:19;13.90;1.00
21193;DHT22;10754;51.106;7.164;2023-02-18T08:27:44;13.60;1.00
21193;DHT22;10754;51.106;7.164;2023-02-18T08:30:10;13.70;1.00
21193;DHT22;10754;51.106;7.164;2023-02-18T08:32:36;13.50;1.00
21193;DHT22;10754;51.106;7.164;2023-02-18T08:35:02;13.80;1.00
21193;DHT22;10754;51.106;7.164;2023-02-18T08:37:28;13.70;1.00
21193;DHT22;10754;51.106;7.164;2023-02-18T08:39:54;13.60;1.00
21193;DHT22;10754;51.106;7.164;2023-02-18T08:42:19;13.60;1.00
21193;DHT22;10754;51.106;7.164;2023-02-18T08:44:45;13.40;1.00
21193;DHT22;10754;51.106;7.164;2023-02-18T08:47:10;13.40;1.00
21193;DHT22;10754;51.106;7.164;2023-02-18T08:49:36;13.30;1.00
21193;DHT22;10754;51.106;7.164;2023-02-18T08:52:03;13.20;1.00
21193;DHT22;10754;51.106;7.164;2023-02-18T08:54:28;13.40;1.00
21193;DHT22;10754;51.106;7.164;2023-02-18T08:56:54;13.20;1.00
21193;DHT22;10754;51.106;7.164;2023-02-18T08:59:22;13.00;1.00
21193;DHT22;10754;51.106;7.164;2023-02-18T09:01:48;13.00;1.00
21193;DHT22;10754;51.106;7.164;2023-02-18T09:04:13;13.20;1.00
21193;DHT22;10754;51.106;7.164;2023-02-18T09:06:39;13.80;1.00
21193;DHT22;10754;51.106;7.164;2023-02-18T09:09:04;13.50;1.00
21193;DHT22;10754;51.106;7.164;2023-02-18T09:11:30;13.50;1.00
21193;DHT22;10754;51.106;7.164;2023-02-18T09:13:55;13.70;1.00
21193;DHT22;10754;51.106;7.164;2023-02-18T09:16:21;13.10;1.00
21193;DHT22;10754;51.106;7.164;2023-02-18T09:18:48;13.20;1.00
21193;DHT22;10754;51.106;7.164;2023-02-18T09:21:15;13.50;1.00
21193;DHT22;10754;51.106;7.164;2023-02-18T09:23:41;13.50;1.00
21193;DHT22;10754;51.106;7.164;2023-02-18T09:26:09;13.50;1.00
21193;DHT22;10754;51.106;7.164;2023-02-18T09:28:39;13.50;1.00
21193;DHT22;10754;51.106;7.164;2023-02-18T09:31:07;13.50;1.00
21193;DHT22;10754;51.106;7.164;2023-02-18T09:33:38;13.50;1.00
21193;DHT22;10754;51.106;7.164;2023-02-18T09:36:04;13.80;1.00
21193;DHT22;10754;51.106;7.164;2023-02-18T09:38:29;13.50;1.00
21193;DHT22;10754;51.106;7.164;2023-02-18T09:40:56;13.50;1.00
21193;DHT22;10754;51.106;7.164;2023-02-18T09:43:31;14.00;1.00
21193;DHT22;10754;51.106;7.164;2023-02-18T09:45:58;13.60;1.00
21193;DHT22;10754;51.106;7.164;2023-02-18T09:48:30;13.50;1.00
21193;DHT22;10754;51.106;7.164;2023-02-18T09:50:57;13.60;1.00
21193;DHT22;10754;51.106;7.164;2023-02-18T09:53:23;13.40;1.00
21193;DHT22;10754;51.106;7.164;2023-02-18T09:55:54;13.20;1.00
21193;DHT22;10754;51.106;7.164;2023-02-18T09:58:31;13.30;1.00
21193;DHT22;10754;51.106;7.164;2023-02-18T10:03:52;13.30;1.00
21193;DHT22;10754;51.106;7.164;2023-02-18T10:06:25;13.30;1.00
21193;DHT22;10754;51.106;7.164;2023-02-18T10:08:53;13.10;1.00
21193;DHT22;10754;51.106;7.164;2023-02-18T10:11:29;13.20;1.00
21193;DHT22;10754;51.106;7.164;2023-02-18T10:13:56;13.20;1.00
21193;DHT22;10754;51.106;7.164;2023-02-18T10:16:24;13.20;1.00
21193;DHT22;10754;51.106;7.164;2023-02-18T10:18:53;13.10;1.00
21193;DHT22;10754;51.106;7.164;2023-02-18T10:21:28;12.90;1.00
21193;DHT22;10754;51.106;7.164;2023-02-18T10:26:31;13.30;1.00
21193;DHT22;10754;51.106;7.164;2023-02-18T10:29:01;13.30;1.00
21193;DHT22;10754;51.106;7.164;2023-02-18T10:31:31;13.20;1.00
21193;DHT22;10754;51.106;7.164;2023-02-18T10:34:40;13.40;1.00
21193;DHT22;10754;51.106;7.164;2023-02-18T10:37:37;13.30;1.00
21193;DHT22;10754;51.106;7.164;2023-02-18T10:40:17;13.40;1.00
21193;DHT22;10754;51.106;7.164;2023-02-18T10:51:21;13.50;1.00
21193;DHT22;10754;51.106;7.164;2023-02-18T10:53:50;13.30;1.00
21193;DHT22;10754;51.106;7.164;2023-02-18T10:56:38;13.30;1.00
21193;DHT22;10754;51.106;7.164;2023-02-18T10:59:22;13.20;1.00
21193;DHT22;10754;51.106;7.164;2023-02-18T11:01:58;13.00;1.00
21193;DHT22;10754;51.106;7.164;2023-02-18T11:04:37;12.90;1.00
21193;DHT22;10754;51.106;7.164;2023-02-18T11:07:07;12.90;1.00
21193;DHT22;10754;51.106;7.164;2023-02-18T11:09:57;13.10;1.00
21193;DHT22;10754;51.106;7.164;2023-02-18T11:12:33;13.10;1.00
21193;DHT22;10754;51.106;7.164;2023-02-18T11:17:42;13.20;1.00
21193;DHT22;10754;51.106;7.164;2023-02-18T11:20:28;13.30;1.00
21193;DHT22;10754;51.106;7.164;2023-02-18T11:23:18;13.20;1.00
21193;DHT22;10754;51.106;7.164;2023-02-18T11:26:03;13.10;1.00
21193;DHT22;10754;51.106;7.164;2023-02-18T11:28:47;13.10;1.00
21193;DHT22;10754;51.106;7.164;2023-02-18T11:31:22;13.10;1.00
21193;DHT22;10754;51.106;7.164;2023-02-18T11:33:54;13.20;1.00
21193;DHT22;10754;51.106;7.164;2023-02-18T11:39:11;13.10;1.00
21193;DHT22;10754;51.106;7.164;2023-02-18T11:41:42;13.20;1.00
21193;DHT22;10754;51.106;7.164;2023-02-18T11:44:37;13.50;1.00
21193;DHT22;10754;51.106;7.164;2023-02-18T11:49:37;13.70;1.00
21193;DHT22;10754;51.106;7.164;2023-02-18T11:52:17;13.60;1.00
21193;DHT22;10754;51.106;7.164;2023-02-18T11:57:27;13.30;1.00
21193;DHT22;10754;51.106;7.164;2023-02-18T11:59:53;13.70;1.00
21193;DHT22;10754;51.106;7.164;2023-02-18T12:05:13;13.30;1.00
21193;DHT22;10754;51.106;7.164;2023-02-18T12:07:49;13.20;1.00
21193;DHT22;10754;51.106;7.164;2023-02-18T12:26:43;13.10;1.00
21193;DHT22;10754;51.106;7.164;2023-02-18T12:29:43;13.30;1.00
21193;DHT22;10754;51.106;7.164;2023-02-18T12:37:59;13.40;1.00
21193;DHT22;10754;51.106;7.164;2023-02-18T12:46:20;13.20;1.00
21193;DHT22;10754;51.106;7.164;2023-02-18T13:08:25;13.00;1.00
21193;DHT22;10754;51.106;7.164;2023-02-18T13:11:23;13.10;1.00
21193;DHT22;10754;51.106;7.164;2023-02-18T13:14:01;13.30;1.00
21193;DHT22;10754;51.106;7.164;2023-02-18T13:16:28;13.40;1.00
21193;DHT22;10754;51.106;7.164;2023-02-18T13:21:38;13.40;1.00
21193;DHT22;10754;51.106;7.164;2023-02-18T13:24:12;13.20;1.00
21193;DHT22;10754;51.106;7.164;2023-02-18T13:26:40;13.00;1.00
21193;DHT22;10754;51.106;7.164;2023-02-18T13:29:36;13.40;1.00
21193;DHT22;10754;51.106;7.164;2023-02-18T13:34:54;13.50;1.00
21193;DHT22;10754;51.106;7.164;2023-02-18T13:40:20;13.40;1.00
21193;DHT22;10754;51.106;7.164;2023-02-18T13:42:50;13.40;1.00
21193;DHT22;10754;51.106;7.164;2023-02-18T13:45:31;13.50;1.00
21193;DHT22;10754;51.106;7.164;2023-02-18T13:47:57;13.50;1.00
21193;DHT22;10754;51.106;7.164;2023-02-18T13:50:30;13.30;1.00
21193;DHT22;10754;51.106;7.164;2023-02-18T13:55:38;13.30;1.00
21193;DHT22;10754;51.106;7.164;2023-02-18T13:58:12;13.20;1.00
21193;DHT22;10754;51.106;7.164;2023-02-18T14:00:40;13.10;1.00
21193;DHT22;10754;51.106;7.164;2023-02-18T14:05:55;13.40;1.00
21193;DHT22;10754;51.106;7.164;2023-02-18T14:08:34;13.50;1.00
21193;DHT22;10754;51.106;7.164;2023-02-18T14:13:42;13.20;1.00
21193;DHT22;10754;51.106;7.164;2023-02-18T14:16:09;13.40;1.00
21193;DHT22;10754;51.106;7.164;2023-02-18T14:23:48;13.30;1.00
21193;DHT22;10754;51.106;7.164;2023-02-18T14:26:27;13.40;1.00
21193;DHT22;10754;51.106;7.164;2023-02-18T14:36:56;13.50;1.00
21193;DHT22;10754;51.106;7.164;2023-02-18T14:42:45;13.30;1.00
21193;DHT22;10754;51.106;7.164;2023-02-18T14:45:34;13.40;1.00
21193;DHT22;10754;51.106;7.164;2023-02-18T14:48:34;13.30;1.00
21193;DHT22;10754;51.106;7.164;2023-02-18T14:51:03;13.20;1.00
21193;DHT22;10754;51.106;7.164;2023-02-18T14:53:29;13.20;1.00
21193;DHT22;10754;51.106;7.164;2023-02-18T14:56:02;13.20;1.00
21193;DHT22;10754;51.106;7.164;2023-02-18T14:58:44;13.30;1.00
21193;DHT22;10754;51.106;7.164;2023-02-18T15:03:42;13.30;1.00
21193;DHT22;10754;51.106;7.164;2023-02-18T15:08:52;13.30;1.00
21193;DHT22;10754;51.106;7.164;2023-02-18T15:11:20;13.00;1.00
21193;DHT22;10754;51.106;7.164;2023-02-18T15:13:47;13.30;1.00
21193;DHT22;10754;51.106;7.164;2023-02-18T15:16:29;13.40;1.00
21193;DHT22;10754;51.106;7.164;2023-02-18T15:19:01;13.50;1.00
21193;DHT22;10754;51.106;7.164;2023-02-18T15:21:35;13.40;1.00
21193;DHT22;10754;51.106;7.164;2023-02-18T15:24:14;13.50;1.00
21193;DHT22;10754;51.106;7.164;2023-02-18T15:26:45;13.60;1.00
21193;DHT22;10754;51.106;7.164;2023-02-18T15:29:28;13.60;1.00
21193;DHT22;10754;51.106;7.164;2023-02-18T15:31:55;13.50;1.00
21193;DHT22;10754;51.106;7.164;2023-02-18T15:36:55;13.50;1.00
21193;DHT22;10754;51.106;7.164;2023-02-18T15:39:21;13.40;1.00
21193;DHT22;10754;51.106;7.164;2023-02-18T15:41:52;13.50;1.00
21193;DHT22;10754;51.106;7.164;2023-02-18T15:44:22;13.60;1.00
21193;DHT22;10754;51.106;7.164;2023-02-18T15:46:48;13.40;1.00
21193;DHT22;10754;51.106;7.164;2023-02-18T15:49:21;13.40;1.00
21193;DHT22;10754;51.106;7.164;2023-02-18T15:51:48;13.50;1.00
21193;DHT22;10754;51.106;7.164;2023-02-18T15:54:19;13.40;1.00
21193;DHT22;10754;51.106;7.164;2023-02-18T15:56:49;13.60;1.00
21193;DHT22;10754;51.106;7.164;2023-02-18T15:59:23;13.40;1.00
21193;DHT22;10754;51.106;7.164;2023-02-18T16:01:55;13.30;1.00
21193;DHT22;10754;51.106;7.164;2023-02-18T16:04:23;13.20;1.00
21193;DHT22;10754;51.106;7.164;2023-02-18T16:06:51;13.20;1.00
21193;DHT22;10754;51.106;7.164;2023-02-18T16:09:24;13.20;1.00
21193;DHT22;10754;51.106;7.164;2023-02-18T16:11:53;13.20;1.00
21193;DHT22;10754;51.106;7.164;2023-02-18T16:14:42;13.30;1.00
21193;DHT22;10754;51.106;7.164;2023-02-18T16:17:13;13.50;1.00
21193;DHT22;10754;51.106;7.164;2023-02-18T16:19:53;13.50;1.00
21193;DHT22;10754;51.106;7.164;2023-02-18T16:22:34;13.50;1.00
21193;DHT22;10754;51.106;7.164;2023-02-18T16:27:37;13.20;1.00
21193;DHT22;10754;51.106;7.164;2023-02-18T16:30:22;13.20;1.00
21193;DHT22;10754;51.106;7.164;2023-02-18T16:32:48;13.40;1.00
21193;DHT22;10754;51.106;7.164;2023-02-18T16:35:14;13.30;1.00
21193;DHT22;10754;51.106;7.164;2023-02-18T16:37:41;13.40;1.00
21193;DHT22;10754;51.106;7.164;2023-02-18T16:40:29;13.30;1.00
21193;DHT22;10754;51.106;7.164;2023-02-18T16:42:57;13.20;1.00
21193;DHT22;10754;51.106;7.164;2023-02-18T16:45:34;13.30;1.00
21193;DHT22;10754;51.106;7.164;2023-02-18T16:48:00;13.40;1.00
21193;DHT22;10754;51.106;7.164;2023-02-18T16:50:27;13.80;1.00
21193;DHT22;10754;51.106;7.164;2023-02-18T16:52:55;13.60;1.00
21193;DHT22;10754;51.106;7.164;2023-02-18T16:55:23;13.50;1.00
21193;DHT22;10754;51.106;7.164;2023-02-18T16:57:48;13.50;1.00
21193;DHT22;10754;51.106;7.164;2023-02-18T17:00:15;13.40;1.00
21193;DHT22;10754;51.106;7.164;2023-02-18T17:02:43;13.30;1.00
21193;DHT22;10754;51.106;7.164;2023-02-18T17:05:17;13.40;1.00
21193;DHT22;10754;51.106;7.164;2023-02-18T17:07:42;13.10;1.00
21193;DHT22;10754;51.106;7.164;2023-02-18T17:10:08;13.20;1.00
21193;DHT22;10754;51.106;7.164;2023-02-18T17:12:34;13.20;1.00
21193;DHT22;10754;51.106;7.164;2023-02-18T17:15:31;13.10;1.00
21193;DHT22;10754;51.106;7.164;2023-02-18T17:17:56;13.30;1.00
21193;DHT22;10754;51.106;7.164;2023-02-18T17:20:24;13.20;1.00
21193;DHT22;10754;51.106;7.164;2023-02-18T17:22:50;13.20;1.00
21193;DHT22;10754;51.106;7.164;2023-02-18T17:25:27;13.20;1.00
21193;DHT22;10754;51.106;7.164;2023-02-18T17:27:54;13.20;1.00
21193;DHT22;10754;51.106;7.164;2023-02-18T17:30:19;13.20;1.00
21193;DHT22;10754;51.106;7.164;2023-02-18T17:32:46;13.30;1.00
21193;DHT22;10754;51.106;7.164;2023-02-18T17:35:21;13.40;1.00
21193;DHT22;10754;51.106;7.164;2023-02-18T17:37:47;13.40;1.00
21193;DHT22;10754;51.106;7.164;2023-02-18T17:40:20;13.50;1.00
21193;DHT22;10754;51.106;7.164;2023-02-18T17:42:46;13.70;1.00
21193;DHT22;10754;51.106;7.164;2023-02-18T17:45:35;13.50;1.00
21193;DHT22;10754;51.106;7.164;2023-02-18T17:48:02;13.60;1.00
21193;DHT22;10754;51.106;7.164;2023-02-18T17:50:29;13.50;1.00
21193;DHT22;10754;51.106;7.164;2023-02-18T17:52:55;13.40;1.00
21193;DHT22;10754;51.106;7.164;2023-02-18T17:55:26;13.40;1.00
21193;DHT22;10754;51.106;7.164;2023-02-18T17:57:53;13.50;1.00
21193;DHT22;10754;51.106;7.164;2023-02-18T18:00:37;13.50;1.00
21193;DHT22;10754;51.106;7.164;2023-02-18T18:03:03;13.60;1.00
21193;DHT22;10754;51.106;7.164;2023-02-18T18:05:36;13.60;1.00
21193;DHT22;10754;51.106;7.164;2023-02-18T18:08:04;13.50;1.00
21193;DHT22;10754;51.106;7.164;2023-02-18T18:10:34;13.60;1.00
21193;DHT22;10754;51.106;7.164;2023-02-18T18:13:03;13.50;1.00
21193;DHT22;10754;51.106;7.164;2023-02-18T18:15:39;13.60;1.00
21193;DHT22;10754;51.106;7.164;2023-02-18T18:18:05;13.50;1.00
21193;DHT22;10754;51.106;7.164;2023-02-18T18:20:33;13.20;1.00
21193;DHT22;10754;51.106;7.164;2023-02-18T18:23:01;13.90;1.00
21193;DHT22;10754;51.106;7.164;2023-02-18T18:25:37;13.70;1.00
21193;DHT22;10754;51.106;7.164;2023-02-18T18:28:04;13.60;1.00
21193;DHT22;10754;51.106;7.164;2023-02-18T18:30:31;13.40;1.00
21193;DHT22;10754;51.106;7.164;2023-02-18T18:32:58;13.40;1.00
21193;DHT22;10754;51.106;7.164;2023-02-18T18:35:28;13.30;1.00
21193;DHT22;10754;51.106;7.164;2023-02-18T18:37:54;13.40;1.00
21193;DHT22;10754;51.106;7.164;2023-02-18T18:40:21;13.50;1.00
21193;DHT22;10754;51.106;7.164;2023-02-18T18:42:47;13.50;1.00
21193;DHT22;10754;51.106;7.164;2023-02-18T18:47:50;13.30;1.00
21193;DHT22;10754;51.106;7.164;2023-02-18T18:50:16;13.40;1.00
21193;DHT22;10754;51.106;7.164;2023-02-18T18:52:42;13.30;1.00
21193;DHT22;10754;51.106;7.164;2023-02-18T18:55:20;13.30;1.00
21193;DHT22;10754;51.106;7.164;2023-02-18T18:57:46;13.30;1.00
21193;DHT22;10754;51.106;7.164;2023-02-18T19:00:13;13.40;1.00
21193;DHT22;10754;51.106;7.164;2023-02-18T19:02:39;13.30;1.00
21193;DHT22;10754;51.106;7.164;2023-02-18T19:05:05;13.30;1.00
21193;DHT22;10754;51.106;7.164;2023-02-18T19:07:31;13.40;1.00
21193;DHT22;10754;51.106;7.164;2023-02-18T19:09:57;13.30;1.00
21193;DHT22;10754;51.106;7.164;2023-02-18T19:12:22;13.30;1.00
21193;DHT22;10754;51.106;7.164;2023-02-18T19:14:48;13.40;1.00
21193;DHT22;10754;51.106;7.164;2023-02-18T19:17:13;13.40;1.00
21193;DHT22;10754;51.106;7.164;2023-02-18T19:19:39;13.40;1.00
21193;DHT22;10754;51.106;7.164;2023-02-18T19:22:04;13.30;1.00
21193;DHT22;10754;51.106;7.164;2023-02-18T19:24:30;13.30;1.00
21193;DHT22;10754;51.106;7.164;2023-02-18T19:26:55;13.30;1.00
21193;DHT22;10754;51.106;7.164;2023-02-18T19:29:21;13.40;1.00
21193;DHT22;10754;51.106;7.164;2023-02-18T19:31:48;13.30;1.00
21193;DHT22;10754;51.106;7.164;2023-02-18T19:34:14;13.20;1.00
21193;DHT22;10754;51.106;7.164;2023-02-18T19:36:40;13.50;1.00
21193;DHT22;10754;51.106;7.164;2023-02-18T19:39:05;13.40;1.00
21193;DHT22;10754;51.106;7.164;2023-02-18T19:41:31;13.30;1.00
21193;DHT22;10754;51.106;7.164;2023-02-18T19:43:57;13.40;1.00
21193;DHT22;10754;51.106;7.164;2023-02-18T19:46:22;13.40;1.00
21193;DHT22;10754;51.106;7.164;2023-02-18T19:48:49;13.30;1.00
21193;DHT22;10754;51.106;7.164;2023-02-18T19:51:16;13.20;1.00
21193;DHT22;10754;51.106;7.164;2023-02-18T19:53:42;13.20;1.00
21193;DHT22;10754;51.106;7.164;2023-02-18T19:56:08;13.00;1.00
21193;DHT22;10754;51.106;7.164;2023-02-18T19:58:34;13.10;1.00
21193;DHT22;10754;51.106;7.164;2023-02-18T20:01:00;13.20;1.00
21193;DHT22;10754;51.106;7.164;2023-02-18T20:03:25;13.20;1.00
21193;DHT22;10754;51.106;7.164;2023-02-18T20:05:51;13.30;1.00
21193;DHT22;10754;51.106;7.164;2023-02-18T20:08:16;13.20;1.00
21193;DHT22;10754;51.106;7.164;2023-02-18T20:10:42;13.20;1.00
21193;DHT22;10754;51.106;7.164;2023-02-18T20:13:07;13.10;1.00
21193;DHT22;10754;51.106;7.164;2023-02-18T20:15:38;13.10;1.00
21193;DHT22;10754;51.106;7.164;2023-02-18T20:18:04;13.30;1.00
21193;DHT22;10754;51.106;7.164;2023-02-18T20:20:29;13.30;1.00
21193;DHT22;10754;51.106;7.164;2023-02-18T20:22:55;13.10;1.00
21193;DHT22;10754;51.106;7.164;2023-02-18T20:25:21;13.20;1.00
21193;DHT22;10754;51.106;7.164;2023-02-18T20:27:46;13.20;1.00
21193;DHT22;10754;51.106;7.164;2023-02-18T20:30:12;13.30;1.00
21193;DHT22;10754;51.106;7.164;2023-02-18T20:32:40;13.30;1.00
21193;DHT22;10754;51.106;7.164;2023-02-18T20:35:06;13.40;1.00
21193;DHT22;10754;51.106;7.164;2023-02-18T20:37:32;13.60;1.00
21193;DHT22;10754;51.106;7.164;2023-02-18T20:39:57;13.70;1.00
21193;DHT22;10754;51.106;7.164;2023-02-18T20:42:23;13.60;1.00
21193;DHT22;10754;51.106;7.164;2023-02-18T20:44:48;13.30;1.00
21193;DHT22;10754;51.106;7.164;2023-02-18T20:47:15;13.20;1.00
21193;DHT22;10754;51.106;7.164;2023-02-18T20:49:41;13.20;1.00
21193;DHT22;10754;51.106;7.164;2023-02-18T20:52:07;13.30;1.00
21193;DHT22;10754;51.106;7.164;2023-02-18T20:54:33;13.30;1.00
21193;DHT22;10754;51.106;7.164;2023-02-18T20:56:58;13.40;1.00
21193;DHT22;10754;51.106;7.164;2023-02-18T20:59:24;13.40;1.00
21193;DHT22;10754;51.106;7.164;2023-02-18T21:01:51;13.50;1.00
21193;DHT22;10754;51.106;7.164;2023-02-18T21:04:18;13.30;1.00
21193;DHT22;10754;51.106;7.164;2023-02-18T21:06:44;13.10;1.00
21193;DHT22;10754;51.106;7.164;2023-02-18T21:09:11;13.20;1.00
21193;DHT22;10754;51.106;7.164;2023-02-18T21:11:37;13.30;1.00
21193;DHT22;10754;51.106;7.164;2023-02-18T21:14:03;13.20;1.00
21193;DHT22;10754;51.106;7.164;2023-02-18T21:16:30;13.10;1.00
21193;DHT22;10754;51.106;7.164;2023-02-18T21:18:57;13.40;1.00
21193;DHT22;10754;51.106;7.164;2023-02-18T21:21:23;13.20;1.00
21193;DHT22;10754;51.106;7.164;2023-02-18T21:23:49;13.10;1.00
21193;DHT22;10754;51.106;7.164;2023-02-18T21:26:21;13.10;1.00
21193;DHT22;10754;51.106;7.164;2023-02-18T21:28:57;13.20;1.00
21193;DHT22;10754;51.106;7.164;2023-02-18T21:31:35;13.20;1.00
21193;DHT22;10754;51.106;7.164;2023-02-18T21:34:01;13.30;1.00
21193;DHT22;10754;51.106;7.164;2023-02-18T21:36:29;13.20;1.00
21193;DHT22;10754;51.106;7.164;2023-02-18T21:38:57;13.40;1.00
21193;DHT22;10754;51.106;7.164;2023-02-18T21:41:25;13.30;1.00
21193;DHT22;10754;51.106;7.164;2023-02-18T21:43:50;13.50;1.00
21193;DHT22;10754;51.106;7.164;2023-02-18T21:46:20;13.50;1.00
21193;DHT22;10754;51.106;7.164;2023-02-18T21:48:46;13.50;1.00
21193;DHT22;10754;51.106;7.164;2023-02-18T21:51:48;13.40;1.00
21193;DHT22;10754;51.106;7.164;2023-02-18T21:54:42;13.30;1.00
21193;DHT22;10754;51.106;7.164;2023-02-18T21:57:15;13.30;1.00
21193;DHT22;10754;51.106;7.164;2023-02-18T21:59:41;13.40;1.00
21193;DHT22;10754;51.106;7.164;2023-02-18T22:02:18;13.40;1.00
21193;DHT22;10754;51.106;7.164;2023-02-18T22:04:44;13.70;1.00
21193;DHT22;10754;51.106;7.164;2023-02-18T22:07:10;13.60;1.00
21193;DHT22;10754;51.106;7.164;2023-02-18T22:09:36;13.50;1.00
21193;DHT22;10754;51.106;7.164;2023-02-18T22:12:02;13.60;1.00
21193;DHT22;10754;51.106;7.164;2023-02-18T22:14:28;13.50;1.00
21193;DHT22;10754;51.106;7.164;2023-02-18T22:16:54;13.30;1.00
21193;DHT22;10754;51.106;7.164;2023-02-18T22:19:19;13.30;1.00
21193;DHT22;10754;51.106;7.164;2023-02-18T22:21:45;13.50;1.00
21193;DHT22;10754;51.106;7.164;2023-02-18T22:24:12;13.50;1.00
21193;DHT22;10754;51.106;7.164;2023-02-18T22:26:38;13.50;1.00
21193;DHT22;10754;51.106;7.164;2023-02-18T22:29:04;13.50;1.00
21193;DHT22;10754;51.106;7.164;2023-02-18T22:31:30;13.40;1.00
21193;DHT22;10754;51.106;7.164;2023-02-18T22:33:58;13.30;1.00
21193;DHT22;10754;51.106;7.164;2023-02-18T22:36:24;13.40;1.00
21193;DHT22;10754;51.106;7.164;2023-02-18T22:38:51;13.40;1.00
21193;DHT22;10754;51.106;7.164;2023-02-18T22:41:19;13.50;1.00
21193;DHT22;10754;51.106;7.164;2023-02-18T22:43:45;13.50;1.00
21193;DHT22;10754;51.106;7.164;2023-02-18T22:46:13;13.60;1.00
21193;DHT22;10754;51.106;7.164;2023-02-18T22:48:39;13.70;1.00
21193;DHT22;10754;51.106;7.164;2023-02-18T22:51:06;13.60;1.00
21193;DHT22;10754;51.106;7.164;2023-02-18T22:53:32;13.70;1.00
21193;DHT22;10754;51.106;7.164;2023-02-18T22:56:03;13.60;1.00
21193;DHT22;10754;51.106;7.164;2023-02-18T22:58:29;13.70;1.00
21193;DHT22;10754;51.106;7.164;2023-02-18T23:00:55;13.60;1.00
21193;DHT22;10754;51.106;7.164;2023-02-18T23:03:20;13.90;1.00
21193;DHT22;10754;51.106;7.164;2023-02-18T23:05:46;13.70;1.00
21193;DHT22;10754;51.106;7.164;2023-02-18T23:08:11;13.60;1.00
21193;DHT22;10754;51.106;7.164;2023-02-18T23:10:37;13.80;1.00
21193;DHT22;10754;51.106;7.164;2023-02-18T23:13:02;13.60;1.00
21193;DHT22;10754;51.106;7.164;2023-02-18T23:15:28;13.20;1.00
21193;DHT22;10754;51.106;7.164;2023-02-18T23:17:53;13.10;1.00
21193;DHT22;10754;51.106;7.164;2023-02-18T23:20:19;13.10;1.00
21193;DHT22;10754;51.106;7.164;2023-02-18T23:23:04;13.40;1.00
21193;DHT22;10754;51.106;7.164;2023-02-18T23:25:30;13.40;1.00
21193;DHT22;10754;51.106;7.164;2023-02-18T23:27:56;13.40;1.00
21193;DHT22;10754;51.106;7.164;2023-02-18T23:30:22;13.30;1.00
21193;DHT22;10754;51.106;7.164;2023-02-18T23:32:48;13.20;1.00
21193;DHT22;10754;51.106;7.164;2023-02-18T23:35:13;13.10;1.00
21193;DHT22;10754;51.106;7.164;2023-02-18T23:37:39;13.10;1.00
21193;DHT22;10754;51.106;7.164;2023-02-18T23:40:23;13.10;1.00
21193;DHT22;10754;51.106;7.164;2023-02-18T23:42:52;13.10;1.00
21193;DHT22;10754;51.106;7.164;2023-02-18T23:45:17;13.20;1.00
21193;DHT22;10754;51.106;7.164;2023-02-18T23:47:43;13.30;1.00
21193;DHT22;10754;51.106;7.164;2023-02-18T23:50:09;13.20;1.00
21193;DHT22;10754;51.106;7.164;2023-02-18T23:52:34;13.30;1.00
21193;DHT22;10754;51.106;7.164;2023-02-18T23:55:00;13.40;1.00
21193;DHT22;10754;51.106;7.164;2023-02-18T23:57:30;13.30;1.00
21193;DHT22;10754;51.106;7.164;2023-02-18T23:59:55;13.40;1.00
